Time;durP1;ratioP1;P1;durP2;ratioP2;P2;SDS_P1;SDS_P2;PMS_P1;PMS_P2;Temp;Humidity;BMP_temperature;BMP_pressure;BME280_temperature;BME280_humidity;BME280_pressure;Samples;Min_cycle;Max_cycle;Signal;HPM_P1;HPM_P2
2021/06/05 00:00:00;;;;;;;15.40;13.90;;;20.80;99.90;;;;;;5108808;28;20496;-41
2021/06/05 00:02:28;;;;;;;14.52;13.15;;;20.80;99.90;;;;;;5108400;28;20432;-40
2021/06/05 00:04:57;;;;;;;16.08;14.48;;;20.80;99.90;;;;;;5108672;28;20084;-40
2021/06/05 00:07:23;;;;;;;14.43;12.98;;;20.80;99.90;;;;;;5109348;28;20011;-42
2021/06/05 00:09:49;;;;;;;14.80;12.93;;;20.70;99.90;;;;;;5108173;28;20096;-38
2021/06/05 00:12:27;;;;;;;15.38;13.45;;;20.70;99.90;;;;;;5108547;28;20506;-39
2021/06/05 00:14:53;;;;;;;15.13;13.63;;;20.70;99.90;;;;;;5108503;28;20071;-40
2021/06/05 00:17:19;;;;;;;16.35;14.70;;;20.70;99.90;;;;;;5108153;28;20059;-39
2021/06/05 00:19:44;;;;;;;16.17;14.48;;;20.70;99.90;;;;;;5108900;28;20095;-40
2021/06/05 00:22:11;;;;;;;17.83;16.02;;;20.70;99.90;;;;;;5108034;28;20110;-38
2021/06/05 00:24:39;;;;;;;18.27;15.82;;;20.80;99.90;;;;;;5108362;28;20030;-40
2021/06/05 00:27:04;;;;;;;16.00;14.38;;;20.80;99.90;;;;;;5108664;28;20039;-36
2021/06/05 00:29:30;;;;;;;16.27;14.77;;;20.80;99.90;;;;;;5108092;28;20019;-39
2021/06/05 00:31:55;;;;;;;15.98;14.30;;;20.80;99.90;;;;;;5108264;28;20023;-39
2021/06/05 00:34:21;;;;;;;16.20;14.50;;;20.90;99.90;;;;;;5108512;28;20104;-37
2021/06/05 00:36:46;;;;;;;16.58;14.88;;;20.90;99.90;;;;;;5108280;28;20412;-39
2021/06/05 00:39:12;;;;;;;20.60;17.60;;;20.90;99.90;;;;;;5108433;28;20050;-40
2021/06/05 00:41:38;;;;;;;20.52;18.38;;;20.80;99.90;;;;;;5109055;28;20106;-39
2021/06/05 00:44:08;;;;;;;25.83;23.13;;;20.60;99.90;;;;;;5107635;28;20073;-40
2021/06/05 00:46:34;;;;;;;27.20;24.42;;;20.50;99.90;;;;;;5108160;28;20031;-42
2021/06/05 00:49:01;;;;;;;25.50;22.88;;;20.30;99.90;;;;;;5108409;28;20028;-42
2021/06/05 00:51:34;;;;;;;20.80;18.48;;;20.10;99.90;;;;;;5108171;28;20110;-42
2021/06/05 00:54:00;;;;;;;19.98;17.90;;;20.00;99.90;;;;;;5107841;28;20047;-42
2021/06/05 00:56:27;;;;;;;25.73;22.83;;;20.00;99.90;;;;;;5108628;28;20110;-41
2021/06/05 00:58:52;;;;;;;20.95;18.77;;;20.00;99.90;;;;;;5107085;28;20039;-42
2021/06/05 01:01:22;;;;;;;26.05;23.42;;;20.00;99.90;;;;;;5107924;28;20577;-41
2021/06/05 01:03:49;;;;;;;29.13;26.20;;;20.00;99.90;;;;;;5108343;28;20016;-42
2021/06/05 01:06:30;;;;;;;28.60;25.40;;;19.90;99.90;;;;;;5107590;28;20027;-42
2021/06/05 01:09:12;;;;;;;39.15;35.05;;;19.80;99.90;;;;;;5106907;28;20031;-42
2021/06/05 01:11:41;;;;;;;;;;;19.70;99.90;;;;;;5108733;28;20022;-42
2021/06/05 01:14:26;;;;;;;41.30;36.92;;;19.50;99.90;;;;;;5107383;28;19911;-42
2021/06/05 01:16:57;;;;;;;36.60;32.70;;;19.30;99.90;;;;;;5107376;28;20067;-42
2021/06/05 01:19:45;;;;;;;32.53;28.42;;;19.30;99.90;;;;;;5107451;28;20019;-43
2021/06/05 01:22:26;;;;;;;35.85;30.92;;;19.30;99.90;;;;;;5096232;28;20455;-42
2021/06/05 01:25:22;;;;;;;46.17;41.15;;;19.30;99.90;;;;;;5107035;28;20451;-42
2021/06/05 01:27:54;;;;;;;48.58;43.38;;;19.30;99.90;;;;;;5099460;28;20023;-42
2021/06/05 01:30:43;;;;;;;42.70;38.10;;;19.20;99.90;;;;;;5107186;28;20018;-43
2021/06/05 01:33:11;;;;;;;37.47;33.38;;;19.10;99.90;;;;;;5107040;28;20433;-42
2021/06/05 01:35:38;;;;;;;32.35;28.20;;;19.10;99.90;;;;;;5106865;28;20542;-43
2021/06/05 01:38:05;;;;;;;29.95;26.85;;;19.10;99.90;;;;;;5106924;28;20152;-42
2021/06/05 01:40:32;;;;;;;44.65;39.10;;;19.20;99.90;;;;;;5106497;28;20028;-42
2021/06/05 01:43:01;;;;;;;37.10;33.00;;;19.10;99.90;;;;;;5106784;28;20035;-41
2021/06/05 01:45:31;;;;;;;39.53;35.38;;;19.10;99.90;;;;;;5107087;28;20035;-42
2021/06/05 01:47:57;;;;;;;38.60;34.50;;;19.10;99.90;;;;;;5106534;28;20055;-42
2021/06/05 01:50:26;;;;;;;36.55;32.42;;;19.10;99.90;;;;;;5107155;28;20046;-46
2021/06/05 01:52:54;;;;;;;39.10;34.58;;;19.10;99.90;;;;;;5106740;28;20020;-42
2021/06/05 01:55:27;;;;;;;40.90;36.20;;;19.10;99.90;;;;;;5107350;28;20048;-42
2021/06/05 01:57:56;;;;;;;44.50;39.60;;;19.10;99.90;;;;;;5106467;28;20042;-41
2021/06/05 02:00:36;;;;;;;42.17;37.60;;;19.10;99.90;;;;;;5107376;28;20028;-42
2021/06/05 02:03:02;;;;;;;36.55;32.60;;;19.10;99.90;;;;;;5105978;28;20040;-44
2021/06/05 02:05:29;;;;;;;54.72;47.25;;;19.10;99.90;;;;;;5107175;28;20032;-42
2021/06/05 02:07:56;;;;;;;48.42;42.90;;;19.00;99.90;;;;;;5105861;28;20327;-41
2021/06/05 02:10:25;;;;;;;57.05;46.95;;;18.90;99.90;;;;;;5106705;28;20027;-41
2021/06/05 02:12:53;;;;;;;59.15;46.55;;;18.90;99.90;;;;;;5106636;28;20035;-41
2021/06/05 02:15:26;;;;;;;58.85;47.05;;;18.80;99.90;;;;;;5106397;28;20032;-41
2021/06/05 02:17:55;;;;;;;53.85;44.25;;;18.70;99.90;;;;;;5106501;28;20035;-41
2021/06/05 02:20:31;;;;;;;55.05;43.58;;;18.60;99.90;;;;;;5108921;28;20108;-41
2021/06/05 02:23:00;;;;;;;54.38;45.00;;;18.60;99.90;;;;;;5110053;28;20039;-43
2021/06/05 02:25:26;;;;;;;52.70;43.72;;;18.60;99.90;;;;;;5110811;28;20115;-41
2021/06/05 02:27:59;;;;;;;53.65;44.13;;;18.60;99.90;;;;;;5110184;28;20040;-41
2021/06/05 02:30:26;;;;;;;;;;;18.60;99.90;;;;;;5111208;28;20026;-41
2021/06/05 02:32:53;;;;;;;52.05;39.03;;;18.60;99.90;;;;;;5110278;28;19927;-42
2021/06/05 02:35:27;;;;;;;58.05;45.45;;;18.60;99.90;;;;;;5110563;28;20088;-41
2021/06/05 02:37:53;;;;;;;55.15;41.33;;;18.50;99.90;;;;;;5110189;28;20100;-42
2021/06/05 02:40:22;;;;;;;54.28;41.45;;;18.40;99.90;;;;;;5110941;28;20116;-41
2021/06/05 02:42:49;;;;;;;52.28;38.55;;;18.30;99.90;;;;;;5110245;27;20031;-41
2021/06/05 02:45:21;;;;;;;54.88;42.33;;;18.30;99.90;;;;;;5110027;28;20032;-41
2021/06/05 02:47:55;;;;;;;81.43;57.67;;;18.20;99.90;;;;;;5110401;28;20035;-41
2021/06/05 02:50:28;;;;;;;68.55;49.17;;;18.10;99.90;;;;;;5110379;28;20031;-41
2021/06/05 02:52:53;;;;;;;73.55;53.05;;;18.00;99.90;;;;;;5109683;28;20011;-41
2021/06/05 02:55:21;;;;;;;71.43;50.30;;;18.00;99.90;;;;;;5110733;28;20020;-41
2021/06/05 02:57:47;;;;;;;68.65;48.72;;;18.00;99.90;;;;;;5109413;28;20008;-41
2021/06/05 03:00:18;;;;;;;63.83;45.67;;;18.00;99.90;;;;;;5109736;28;20500;-42
2021/06/05 03:02:44;;;;;;;60.85;44.53;;;18.00;99.90;;;;;;5110052;28;20032;-43
2021/06/05 03:05:13;;;;;;;63.20;45.13;;;18.00;99.90;;;;;;5109627;28;20069;-42
2021/06/05 03:07:38;;;;;;;47.67;36.72;;;18.10;99.90;;;;;;5110315;28;20019;-41
2021/06/05 03:10:06;;;;;;;56.35;40.63;;;18.10;99.90;;;;;;5109414;28;20046;-42
2021/06/05 03:12:31;;;;;;;69.45;47.67;;;18.10;99.90;;;;;;5109448;28;20092;-42
2021/06/05 03:14:57;;;;;;;66.32;47.47;;;18.00;99.90;;;;;;5108987;28;20478;-42
2021/06/05 03:17:22;;;;;;;65.13;47.47;;;18.00;99.90;;;;;;5110472;28;20073;-41
2021/06/05 03:19:48;;;;;;;66.05;47.45;;;18.00;99.90;;;;;;5108952;28;20535;-41
2021/06/05 03:22:14;;;;;;;64.05;45.20;;;18.00;99.90;;;;;;5109595;28;20035;-41
2021/06/05 03:24:39;;;;;;;83.97;60.03;;;17.90;99.90;;;;;;5109432;28;20050;-42
2021/06/05 03:27:05;;;;;;;79.80;55.97;;;17.90;99.90;;;;;;5109290;28;20498;-41
2021/06/05 03:29:33;;;;;;;73.80;51.60;;;17.80;99.90;;;;;;5109638;28;20350;-41
2021/06/05 03:31:59;;;;;;;72.95;50.20;;;17.80;99.90;;;;;;5109587;28;20389;-41
2021/06/05 03:34:25;;;;;;;88.38;60.35;;;17.80;99.90;;;;;;5109117;28;20320;-44
2021/06/05 03:36:51;;;;;;;77.30;51.63;;;17.70;99.90;;;;;;5109164;28;20256;-41
2021/06/05 03:39:16;;;;;;;77.45;51.78;;;17.70;99.90;;;;;;5109405;28;20352;-43
2021/06/05 03:41:44;;;;;;;79.50;52.10;;;17.70;99.90;;;;;;5108892;28;20039;-43
2021/06/05 03:44:10;;;;;;;67.78;45.58;;;17.70;99.90;;;;;;5109558;28;20022;-43
2021/06/05 03:46:36;;;;;;;67.65;46.03;;;17.70;99.90;;;;;;5109206;28;20027;-39
2021/06/05 03:49:02;;;;;;;76.68;50.28;;;17.60;99.90;;;;;;5108689;28;20590;-41
2021/06/05 03:51:28;;;;;;;67.35;45.35;;;17.70;99.90;;;;;;5109113;28;20520;-42
2021/06/05 03:53:53;;;;;;;75.20;48.30;;;17.70;99.90;;;;;;5108447;28;20023;-40
2021/06/05 03:56:19;;;;;;;82.57;52.30;;;17.70;99.90;;;;;;5109065;28;20019;-42
2021/06/05 03:58:45;;;;;;;72.90;47.45;;;17.70;99.90;;;;;;5109100;28;20043;-42
2021/06/05 04:01:16;;;;;;;71.82;45.92;;;17.70;99.90;;;;;;5107780;28;20035;-47
2021/06/05 04:03:42;;;;;;;73.40;46.95;;;17.70;99.90;;;;;;5108964;28;20103;-42
2021/06/05 04:06:08;;;;;;;82.90;50.60;;;17.60;99.90;;;;;;5108159;28;20110;-41
2021/06/05 04:08:34;;;;;;;67.82;43.83;;;17.60;99.90;;;;;;5108539;28;20481;-42
2021/06/05 04:11:00;;;;;;;77.05;47.83;;;17.60;99.90;;;;;;5107928;28;20031;-41
2021/06/05 04:13:25;;;;;;;76.32;50.55;;;17.60;99.90;;;;;;5108743;28;20541;-41
2021/06/05 04:15:51;;;;;;;80.85;50.60;;;17.60;99.90;;;;;;5107885;28;20139;-41
2021/06/05 04:18:23;;;;;;;75.43;46.97;;;17.60;99.90;;;;;;5108497;28;20102;-41
2021/06/05 04:20:48;;;;;;;66.82;40.50;;;17.60;99.90;;;;;;5108143;28;20498;-41
2021/06/05 04:23:17;;;;;;;68.97;42.55;;;17.60;99.90;;;;;;5108063;28;20023;-42
2021/06/05 04:25:45;;;;;;;57.95;37.60;;;17.70;99.90;;;;;;5108069;28;20141;-42
2021/06/05 04:28:13;;;;;;;75.28;44.13;;;17.70;99.90;;;;;;5108667;28;20034;-41
2021/06/05 04:30:43;;;;;;;70.22;42.13;;;17.70;99.90;;;;;;5107955;28;20020;-41
2021/06/05 04:33:12;;;;;;;78.30;47.92;;;17.80;99.90;;;;;;5104871;28;20053;-41
2021/06/05 04:35:38;;;;;;;77.32;46.78;;;17.80;99.90;;;;;;5108068;28;20019;-41
2021/06/05 04:38:05;;;;;;;71.90;44.42;;;17.80;99.90;;;;;;5107298;28;20026;-42
2021/06/05 04:40:30;;;;;;;65.07;39.20;;;17.80;99.90;;;;;;5108526;28;20016;-42
2021/06/05 04:42:59;;;;;;;66.47;41.80;;;17.90;99.90;;;;;;5106429;28;20069;-43
2021/06/05 04:45:25;;;;;;;83.53;49.05;;;17.90;99.90;;;;;;5107975;28;20493;-42
2021/06/05 04:47:51;;;;;;;78.40;47.67;;;17.80;99.90;;;;;;5107427;28;20085;-42
2021/06/05 04:50:20;;;;;;;58.75;35.40;;;17.90;99.90;;;;;;5107173;28;20069;-41
2021/06/05 04:52:46;;;;;;;72.20;43.50;;;17.90;99.90;;;;;;5107696;28;20126;-42
2021/06/05 04:55:12;;;;;;;71.38;43.25;;;17.90;99.90;;;;;;5107076;28;20127;-41
2021/06/05 04:57:38;;;;;;;62.53;38.92;;;17.90;99.90;;;;;;5107651;28;20016;-40
2021/06/05 05:00:10;;;;;;;61.25;38.72;;;18.00;99.90;;;;;;5107521;28;20046;-41
2021/06/05 05:02:36;;;;;;;60.30;36.90;;;18.00;99.90;;;;;;5106586;28;20131;-41
2021/06/05 05:05:04;;;;;;;57.17;35.92;;;18.00;99.90;;;;;;5106916;28;20135;-41
2021/06/05 05:07:29;;;;;;;51.28;32.90;;;18.00;99.90;;;;;;5107578;28;20052;-41
2021/06/05 05:09:55;;;;;;;51.03;32.58;;;18.10;99.90;;;;;;5107232;28;20081;-42
2021/06/05 05:12:23;;;;;;;52.38;33.75;;;18.10;99.90;;;;;;5107244;28;20023;-42
2021/06/05 05:14:48;;;;;;;56.90;34.40;;;18.10;99.90;;;;;;5106518;28;20078;-42
2021/06/05 05:17:14;;;;;;;48.40;30.40;;;18.10;99.90;;;;;;5106969;28;20627;-41
2021/06/05 05:19:39;;;;;;;58.28;33.72;;;18.10;99.90;;;;;;5107208;28;20099;-40
2021/06/05 05:22:08;;;;;;;59.45;36.05;;;18.10;99.90;;;;;;5107088;28;20339;-43
2021/06/05 05:24:34;;;;;;;65.72;36.95;;;18.10;99.90;;;;;;5106968;28;20442;-42
2021/06/05 05:27:00;;;;;;;60.38;34.97;;;18.20;99.90;;;;;;5106105;28;20028;-42
2021/06/05 05:29:25;;;;;;;58.70;35.13;;;18.20;99.90;;;;;;5106913;28;20425;-41
2021/06/05 05:31:51;;;;;;;57.72;34.90;;;18.20;99.90;;;;;;5106668;28;20037;-41
2021/06/05 05:34:17;;;;;;;46.90;28.20;;;18.30;99.90;;;;;;5107356;28;20042;-41
2021/06/05 05:36:42;;;;;;;52.08;31.67;;;18.30;99.90;;;;;;5107067;28;20019;-43
2021/06/05 05:39:12;;;;;;;47.53;30.98;;;18.30;99.90;;;;;;5106166;28;20152;-41
2021/06/05 05:41:38;;;;;;;57.65;35.88;;;18.20;99.90;;;;;;5105412;28;20103;-42
2021/06/05 05:44:04;;;;;;;61.55;38.53;;;18.20;99.90;;;;;;5106203;28;20552;-42
2021/06/05 05:46:30;;;;;;;60.22;38.08;;;18.20;99.90;;;;;;5106815;28;20027;-41
2021/06/05 05:48:55;;;;;;;59.45;36.55;;;18.10;99.90;;;;;;5106755;28;20020;-42
2021/06/05 05:51:23;;;;;;;55.25;34.72;;;18.10;99.90;;;;;;5107277;28;20053;-41
2021/06/05 05:53:50;;;;;;;57.03;33.53;;;18.10;99.90;;;;;;5106546;28;20016;-43
2021/06/05 05:56:17;;;;;;;48.03;30.60;;;18.10;99.90;;;;;;5110999;28;20134;-44
2021/06/05 05:58:49;;;;;;;48.30;29.55;;;18.20;99.90;;;;;;5111264;28;20024;-40
2021/06/05 06:01:19;;;;;;;50.87;33.30;;;18.30;99.90;;;;;;5110715;28;20031;-41
2021/06/05 06:03:46;;;;;;;46.90;29.25;;;18.30;99.90;;;;;;5110768;28;20023;-41
2021/06/05 06:06:12;;;;;;;43.40;27.17;;;18.40;99.90;;;;;;5107062;28;20020;-42
2021/06/05 06:08:41;;;;;;;45.08;28.90;;;18.50;99.90;;;;;;5111320;28;20016;-40
2021/06/05 06:11:09;;;;;;;47.17;27.85;;;18.50;99.90;;;;;;5110618;28;20019;-41
2021/06/05 06:13:35;;;;;;;45.97;29.30;;;18.60;99.90;;;;;;5111496;28;20055;-43
2021/06/05 06:16:01;;;;;;;40.55;25.88;;;18.70;99.90;;;;;;5109523;28;20151;-40
2021/06/05 06:18:26;;;;;;;33.42;23.75;;;18.80;99.90;;;;;;5111705;28;20587;-41
2021/06/05 06:20:54;;;;;;;47.80;30.17;;;18.80;99.90;;;;;;5111034;28;20404;-40
2021/06/05 06:23:24;;;;;;;46.35;29.52;;;18.80;99.90;;;;;;5110647;28;20027;-41
2021/06/05 06:25:55;;;;;;;37.58;24.23;;;18.80;99.90;;;;;;5110483;28;20024;-40
2021/06/05 06:28:24;;;;;;;41.72;26.23;;;18.80;99.90;;;;;;5110313;27;20258;-41
2021/06/05 06:30:51;;;;;;;35.80;23.17;;;18.90;99.90;;;;;;5110357;28;20471;-40
2021/06/05 06:33:19;;;;;;;38.20;24.85;;;18.90;99.90;;;;;;5110743;28;20099;-42
2021/06/05 06:35:45;;;;;;;37.72;24.65;;;19.00;99.90;;;;;;5109883;28;20038;-41
2021/06/05 06:38:18;;;;;;;35.90;22.90;;;19.00;99.90;;;;;;5111160;27;20055;-40
2021/06/05 06:40:43;;;;;;;;;;;19.00;99.90;;;;;;5110531;28;20123;-41
2021/06/05 06:43:11;;;;;;;31.35;21.13;;;19.00;99.90;;;;;;5110878;27;20006;-42
2021/06/05 06:45:38;;;;;;;30.75;19.88;;;19.10;99.90;;;;;;5110833;28;20057;-41
2021/06/05 06:48:04;;;;;;;30.48;20.05;;;19.10;99.90;;;;;;5110372;28;20024;-45
2021/06/05 06:50:30;;;;;;;29.10;19.85;;;19.10;99.90;;;;;;5110364;28;20020;-42
2021/06/05 06:52:56;;;;;;;26.00;19.13;;;19.20;99.90;;;;;;5109877;28;20016;-39
2021/06/05 06:55:23;;;;;;;24.60;17.45;;;19.20;99.90;;;;;;5110516;28;20101;-40
2021/06/05 06:57:49;;;;;;;19.20;14.93;;;19.30;99.90;;;;;;5109743;28;20463;-42
2021/06/05 07:00:19;;;;;;;20.60;15.40;;;19.30;99.90;;;;;;5110242;28;20041;-40
2021/06/05 07:02:45;;;;;;;20.55;14.57;;;19.40;99.90;;;;;;5109534;28;20424;-40
2021/06/05 07:05:14;;;;;;;21.85;16.55;;;19.40;99.90;;;;;;5109680;28;20124;-42
2021/06/05 07:07:39;;;;;;;21.65;15.93;;;19.50;99.90;;;;;;5110186;28;20049;-41
2021/06/05 07:10:07;;;;;;;22.42;16.13;;;19.40;99.90;;;;;;5110117;28;20019;-42
2021/06/05 07:12:34;;;;;;;22.17;15.10;;;19.50;99.90;;;;;;5109838;28;20111;-41
2021/06/05 07:15:01;;;;;;;19.00;15.93;;;19.50;99.90;;;;;;5109761;27;20408;-43
2021/06/05 07:17:27;;;;;;;19.27;14.75;;;19.50;99.90;;;;;;5109453;27;20039;-41
2021/06/05 07:19:53;;;;;;;20.08;15.18;;;19.50;99.90;;;;;;5110052;28;20097;-43
2021/06/05 07:22:18;;;;;;;19.75;16.05;;;19.50;99.90;;;;;;5110152;27;20104;-41
2021/06/05 07:24:44;;;;;;;19.52;16.02;;;19.50;99.90;;;;;;5109270;28;20059;-41
2021/06/05 07:27:12;;;;;;;25.05;19.60;;;19.50;99.90;;;;;;5109862;28;20023;-41
2021/06/05 07:29:38;;;;;;;24.48;18.73;;;19.50;99.90;;;;;;5110465;28;20534;-40
2021/06/05 07:32:07;;;;;;;23.77;17.77;;;19.30;99.90;;;;;;5108807;28;20110;-41
2021/06/05 07:34:35;;;;;;;20.38;16.98;;;19.20;99.90;;;;;;5109826;28;20027;-43
2021/06/05 07:37:06;;;;;;;15.95;13.45;;;19.10;99.90;;;;;;5109436;28;20034;-40
2021/06/05 07:39:34;;;;;;;18.00;15.48;;;19.10;99.90;;;;;;5109021;28;20384;-40
2021/06/05 07:42:01;;;;;;;16.92;13.60;;;19.10;99.90;;;;;;5108685;28;20389;-41
2021/06/05 07:44:28;;;;;;;19.55;16.27;;;19.10;99.90;;;;;;5109346;28;20015;-42
2021/06/05 07:46:57;;;;;;;18.88;13.82;;;19.10;99.90;;;;;;5108901;27;20478;-41
2021/06/05 07:49:33;;;;;;;16.23;13.73;;;19.20;99.90;;;;;;5109368;28;20015;-41
2021/06/05 07:52:00;;;;;;;15.60;12.50;;;19.20;99.90;;;;;;5108989;28;20023;-41
2021/06/05 07:54:26;;;;;;;15.52;13.48;;;19.20;99.90;;;;;;5109070;28;20027;-40
2021/06/05 07:56:52;;;;;;;18.00;15.43;;;19.20;99.90;;;;;;5109341;28;20028;-40
2021/06/05 07:59:23;;;;;;;16.35;14.32;;;19.20;99.90;;;;;;5108803;28;20468;-43
2021/06/05 08:01:50;;;;;;;16.10;12.90;;;19.10;99.90;;;;;;5088506;28;20067;-41
2021/06/05 08:04:17;;;;;;;13.25;11.85;;;19.10;99.90;;;;;;5102593;28;20043;-42
2021/06/05 08:06:43;;;;;;;13.32;10.73;;;19.10;99.90;;;;;;5106628;28;20028;-40
2021/06/05 08:09:09;;;;;;;16.35;14.57;;;19.10;99.90;;;;;;5108760;28;20012;-41
2021/06/05 08:11:35;;;;;;;18.63;14.18;;;19.10;99.90;;;;;;5107184;28;20426;-41
2021/06/05 08:14:01;;;;;;;17.00;12.77;;;19.10;99.90;;;;;;5107605;28;20035;-42
2021/06/05 08:16:26;;;;;;;18.83;16.65;;;19.10;99.90;;;;;;5108638;28;20502;-38
2021/06/05 08:18:52;;;;;;;15.48;12.95;;;19.00;99.90;;;;;;5107958;28;20028;-40
2021/06/05 08:21:20;;;;;;;14.25;11.75;;;19.10;99.90;;;;;;5108407;28;20352;-40
2021/06/05 08:23:46;;;;;;;9.02;8.13;;;19.10;99.90;;;;;;5108649;28;20581;-40
2021/06/05 08:26:14;;;;;;;11.55;10.35;;;19.20;99.90;;;;;;5108606;28;20066;-41
2021/06/05 08:28:40;;;;;;;13.80;12.32;;;19.20;99.90;;;;;;5107623;28;20015;-41
2021/06/05 08:31:10;;;;;;;13.18;11.02;;;19.20;99.90;;;;;;5109656;28;20099;-43
2021/06/05 08:33:36;;;;;;;11.73;10.32;;;19.20;99.90;;;;;;5109498;28;20072;-45
2021/06/05 08:36:04;;;;;;;10.25;9.30;;;19.20;99.90;;;;;;5108381;28;20382;-40
2021/06/05 08:38:30;;;;;;;9.57;8.68;;;19.30;99.90;;;;;;5109428;28;20053;-41
2021/06/05 08:41:03;;;;;;;12.70;9.45;;;19.40;99.90;;;;;;5106957;28;20104;-43
2021/06/05 08:43:45;;;;;;;11.00;8.85;;;19.50;99.90;;;;;;5108251;28;20053;-43
2021/06/05 08:46:14;;;;;;;10.03;9.10;;;19.60;99.90;;;;;;5108223;28;20065;-42
2021/06/05 08:48:40;;;;;;;9.90;8.90;;;19.60;99.90;;;;;;5108211;28;20393;-41
2021/06/05 08:51:24;;;;;;;10.13;8.25;;;19.70;99.90;;;;;;5107842;28;20089;-41
2021/06/05 08:53:53;;;;;;;8.30;7.32;;;19.80;99.90;;;;;;5087957;28;20055;-42
2021/06/05 08:56:26;;;;;;;8.93;8.13;;;19.90;99.90;;;;;;5104877;28;20080;-39
2021/06/05 08:58:58;;;;;;;8.68;7.68;;;19.80;99.90;;;;;;5108770;28;20375;-41
2021/06/05 09:01:28;;;;;;;10.50;9.32;;;19.90;99.90;;;;;;5108830;28;20063;-41
2021/06/05 09:04:15;;;;;;;8.77;7.63;;;19.80;99.90;;;;;;5087576;28;20448;-43
2021/06/05 09:07:06;;;;;;;8.30;7.50;;;19.80;99.90;;;;;;5105335;28;20058;-41
2021/06/05 09:09:36;;;;;;;8.63;7.47;;;19.90;99.90;;;;;;5102030;28;20080;-40
2021/06/05 09:12:04;;;;;;;9.40;7.85;;;19.90;99.90;;;;;;5107265;28;20028;-40
2021/06/05 09:14:30;;;;;;;8.82;7.50;;;20.00;99.90;;;;;;5108691;28;20044;-42
2021/06/05 09:16:58;;;;;;;8.38;7.55;;;20.10;99.90;;;;;;5107662;28;20027;-40
2021/06/05 09:19:29;;;;;;;6.18;5.57;;;20.10;99.90;;;;;;5088362;28;20494;-40
2021/06/05 09:22:19;;;;;;;11.38;8.30;;;20.20;99.90;;;;;;5102576;28;20379;-38
2021/06/05 09:24:54;;;;;;;10.40;9.45;;;20.10;99.90;;;;;;5087749;28;20081;-41
2021/06/05 09:27:23;;;;;;;10.20;9.20;;;20.00;99.90;;;;;;5105069;28;20467;-42
2021/06/05 09:30:03;;;;;;;11.30;10.20;;;19.90;99.90;;;;;;5108107;28;20027;-40
2021/06/05 09:32:33;;;;;;;10.35;9.35;;;19.80;99.90;;;;;;5107940;28;20047;-40
2021/06/05 09:35:10;;;;;;;10.35;9.27;;;19.70;99.90;;;;;;5087524;28;20020;-41
2021/06/05 09:37:48;;;;;;;9.85;8.90;;;19.60;99.90;;;;;;5104637;28;20153;-43
2021/06/05 09:40:20;;;;;;;8.90;8.02;;;19.60;99.90;;;;;;5087696;28;20059;-41
2021/06/05 09:42:55;;;;;;;8.93;8.00;;;19.60;99.90;;;;;;5103965;28;20039;-41
2021/06/05 09:45:30;;;;;;;7.93;7.22;;;19.60;99.90;;;;;;5087925;28;20102;-41
2021/06/05 09:48:19;;;;;;;10.48;9.40;;;19.60;99.90;;;;;;5103830;28;20051;-41
2021/06/05 09:50:47;;;;;;;10.80;9.80;;;19.60;99.90;;;;;;5087914;28;20032;-42
2021/06/05 09:53:25;;;;;;;9.55;8.73;;;19.70;99.90;;;;;;5104362;28;20038;-42
2021/06/05 09:55:51;;;;;;;11.98;10.80;;;19.80;99.90;;;;;;5107762;28;20443;-40
2021/06/05 09:58:57;;;;;;;12.70;11.38;;;19.90;99.90;;;;;;5107939;28;20034;-41
2021/06/05 10:01:29;;;;;;;12.63;9.90;;;20.00;99.90;;;;;;5087600;28;20084;-42
2021/06/05 10:04:08;;;;;;;10.18;9.27;;;20.00;99.90;;;;;;5107729;28;20466;-40
2021/06/05 10:06:48;;;;;;;10.40;9.48;;;20.00;99.90;;;;;;5107450;28;20447;-39
2021/06/05 10:09:26;;;;;;;10.75;9.50;;;20.00;99.90;;;;;;5107098;28;20023;-41
2021/06/05 10:11:54;;;;;;;12.18;10.48;;;20.10;99.90;;;;;;5107857;28;20189;-41
2021/06/05 10:14:26;;;;;;;9.65;8.65;;;20.20;99.90;;;;;;5108000;28;20055;-39
2021/06/05 10:16:58;;;;;;;10.38;9.38;;;20.50;99.90;;;;;;5108320;28;20112;-41
2021/06/05 10:19:42;;;;;;;9.52;8.25;;;20.60;99.90;;;;;;5107753;28;20082;-41
2021/06/05 10:22:08;;;;;;;9.43;8.52;;;20.70;99.90;;;;;;5107544;28;20483;-41
2021/06/05 10:24:55;;;;;;;9.63;8.50;;;20.70;99.90;;;;;;5107966;28;20470;-42
2021/06/05 10:27:35;;;;;;;9.20;7.93;;;20.70;99.90;;;;;;5107682;28;20044;-40
2021/06/05 10:30:20;;;;;;;7.93;6.82;;;20.70;99.90;;;;;;5107199;28;20020;-41
2021/06/05 10:32:47;;;;;;;7.38;6.68;;;20.80;99.90;;;;;;5107692;28;20057;-42
2021/06/05 10:35:33;;;;;;;9.50;8.60;;;21.00;99.90;;;;;;5103816;28;20094;-40
2021/06/05 10:38:09;;;;;;;9.75;8.68;;;20.90;99.90;;;;;;5106994;28;20015;-41
2021/06/05 10:40:36;;;;;;;8.80;8.00;;;20.70;99.90;;;;;;5108534;28;20514;-38
2021/06/05 10:43:05;;;;;;;9.50;8.60;;;20.50;99.90;;;;;;5110552;28;20527;-40
2021/06/05 10:45:39;;;;;;;8.90;8.10;;;20.40;99.90;;;;;;5111467;28;20053;-41
2021/06/05 10:48:28;;;;;;;8.63;7.82;;;20.30;99.90;;;;;;5111161;28;20032;-39
2021/06/05 10:51:08;;;;;;;7.88;7.18;;;20.30;99.90;;;;;;5108803;28;20028;-43
2021/06/05 10:54:01;;;;;;;7.10;6.40;;;20.30;99.90;;;;;;5111683;28;20028;-43
2021/06/05 10:56:38;;;;;;;7.20;6.50;;;20.30;99.90;;;;;;5099673;28;20027;-42
2021/06/05 10:59:07;;;;;;;7.10;6.40;;;20.40;99.90;;;;;;5110658;28;20409;-44
2021/06/05 11:01:39;;;;;;;7.85;7.15;;;20.50;99.90;;;;;;5100707;28;20032;-41
2021/06/05 11:04:07;;;;;;;9.23;8.43;;;20.50;99.90;;;;;;5110463;28;20042;-39
2021/06/05 11:07:02;;;;;;;8.05;7.30;;;20.50;99.90;;;;;;5111399;28;20050;-41
2021/06/05 11:09:29;;;;;;;8.23;7.40;;;20.40;99.90;;;;;;5111099;28;20022;-40
2021/06/05 11:12:19;;;;;;;9.65;8.63;;;20.40;99.90;;;;;;5110366;28;20498;-43
2021/06/05 11:14:46;;;;;;;10.57;9.57;;;20.30;99.90;;;;;;5081100;27;20054;-43
2021/06/05 11:17:28;;;;;;;11.32;9.82;;;20.30;99.90;;;;;;5110111;28;20548;-41
2021/06/05 11:20:26;;;;;;;11.50;10.18;;;20.20;99.90;;;;;;5110077;28;20019;-42
2021/06/05 11:22:51;;;;;;;10.77;9.77;;;20.20;99.90;;;;;;5111224;28;20126;-42
2021/06/05 11:25:17;;;;;;;12.65;11.35;;;20.10;99.90;;;;;;5109659;28;20165;-38
2021/06/05 11:27:42;;;;;;;9.70;8.80;;;20.20;99.90;;;;;;5110164;28;20023;-42
2021/06/05 11:30:08;;;;;;;13.73;11.32;;;20.30;99.90;;;;;;5110269;28;20446;-42
2021/06/05 11:32:35;;;;;;;9.77;8.88;;;20.40;99.90;;;;;;5109600;28;20024;-39
2021/06/05 11:35:10;;;;;;;8.95;8.15;;;20.50;99.90;;;;;;5110203;28;20028;-41
2021/06/05 11:37:46;;;;;;;10.13;9.13;;;20.50;99.90;;;;;;5110809;28;20023;-41
2021/06/05 11:40:12;;;;;;;7.85;7.00;;;20.50;99.90;;;;;;5110006;28;20024;-41
2021/06/05 11:42:50;;;;;;;10.35;9.38;;;20.60;99.90;;;;;;5110353;28;20027;-41
2021/06/05 11:45:22;;;;;;;10.85;9.75;;;20.70;99.90;;;;;;5109221;27;20024;-40
2021/06/05 11:47:48;;;;;;;11.68;10.23;;;20.70;99.90;;;;;;5109919;28;20076;-40
2021/06/05 11:50:44;;;;;;;8.93;8.07;;;20.70;99.90;;;;;;5109764;28;20016;-41
2021/06/05 11:53:32;;;;;;;7.50;6.90;;;20.70;99.90;;;;;;5099354;28;20088;-41
2021/06/05 11:56:06;;;;;;;10.55;9.43;;;20.70;99.90;;;;;;5108643;28;20036;-41
2021/06/05 11:58:34;;;;;;;9.82;8.93;;;20.60;99.90;;;;;;5099740;28;20023;-41
2021/06/05 12:01:05;;;;;;;9.77;8.90;;;20.50;99.90;;;;;;5108242;28;20078;-41
2021/06/05 12:03:47;;;;;;;8.70;7.90;;;20.50;99.90;;;;;;5108933;28;20024;-38
2021/06/05 12:06:16;;;;;;;10.85;9.85;;;20.50;99.90;;;;;;5108226;28;20118;-41
2021/06/05 12:08:42;;;;;;;13.90;12.57;;;20.50;99.90;;;;;;5107819;28;20108;-39
2021/06/05 12:11:22;;;;;;;12.05;10.95;;;20.50;99.90;;;;;;5107112;28;20106;-41
2021/06/05 12:13:49;;;;;;;11.50;10.50;;;20.40;99.90;;;;;;5106969;28;20024;-40
2021/06/05 12:16:21;;;;;;;10.70;9.60;;;20.40;99.90;;;;;;5107077;28;20392;-40
2021/06/05 12:18:49;;;;;;;9.82;8.95;;;20.40;99.90;;;;;;5107555;28;20011;-40
2021/06/05 12:21:21;;;;;;;9.05;8.25;;;20.50;99.90;;;;;;5106289;28;20074;-40
2021/06/05 12:23:46;;;;;;;9.02;8.13;;;20.60;99.90;;;;;;5107917;28;20061;-43
2021/06/05 12:26:20;;;;;;;13.70;12.50;;;20.60;99.90;;;;;;5108762;28;20054;-41
2021/06/05 12:29:12;;;;;;;10.50;9.50;;;20.60;99.90;;;;;;5107858;28;20042;-46
2021/06/05 12:31:42;;;;;;;13.70;12.27;;;20.50;99.90;;;;;;5108485;28;20023;-40
2021/06/05 12:34:25;;;;;;;9.98;9.07;;;20.50;99.90;;;;;;5107553;27;20147;-41
2021/06/05 12:36:54;;;;;;;;;;;20.50;99.90;;;;;;5109071;28;20091;-41
2021/06/05 12:39:26;;;;;;;10.80;9.80;;;20.40;99.90;;;;;;5104864;28;20420;-39
2021/06/05 12:41:53;;;;;;;12.40;11.20;;;20.50;99.90;;;;;;5107838;28;20347;-41
2021/06/05 12:44:25;;;;;;;12.43;11.25;;;20.60;99.90;;;;;;5108474;28;20012;-42
2021/06/05 12:46:50;;;;;;;13.35;12.18;;;20.70;99.90;;;;;;5108418;28;20111;-42